KAXN/AXN METAR and TAF weather

Enter ICAO airport designator
Station Type Date Time Source
KAXN METAR 2019/06/16 07:53 UTC NOAA

KAXN 160753Z AUTO 10007KT 10SM FEW085 13/08 A2984 RMK AO2 SLP106 T01330078


Station Type Date Time Source
KAXN Decoded METAR 2019/06/16 07:53 UTC NOAA

CHANDLER FIELD, MN, United States (KAXN) 45-52N 095-24W 433M
Jun 16, 2019 - 03:53 AM EDT / 2019.06.16 0753 UTC
Wind: from the E (100 degrees) at 8 MPH (7 KT):0
Visibility: 10 mile(s):0
Sky conditions: mostly clear
Temperature: 55.9 F (13.3 C)
Dew Point: 46.0 F (7.8 C)
Relative Humidity: 69%
Pressure (altimeter): 29.84 in. Hg (1010 hPa)
ob: KAXN 160753Z AUTO 10007KT 10SM FEW085 13/08 A2984 RMK AO2 SLP106 T01330078
cycle: 8

Station Type Date Time Source
KAXN TAF 2019/06/16 06:27 UTC NOAA

TAF KAXN 160525Z 1606/1706 06008KT P6SM OVC035
FM160900 08007KT P6SM OVC017
FM161300 10006KT P6SM OVC010
FM161800 13007KT P6SM OVC020
FM162200 10006KT P6SM SCT040

Example: see airport list